Time;durP1;ratioP1;P1;durP2;ratioP2;P2;SDS_P1;SDS_P2;PMS_P1;PMS_P2;Temp;Humidity;BMP_temperature;BMP_pressure;BME280_temperature;BME280_humidity;BME280_pressure;Samples;Min_cycle;Max_cycle;Signal;HPM_P1;HPM_P2
2022/11/15 00:00:19;;;;;;;5.20;2.97;;;16.10;60.60;;;;;;6301485;28;20032;-64
2022/11/15 00:03:39;;;;;;;8.90;2.10;;;16.20;60.80;;;;;;6311859;28;20040;-64
2022/11/15 00:06:58;;;;;;;4.68;2.42;;;16.20;60.90;;;;;;6325179;28;20032;-65
2022/11/15 00:10:18;;;;;;;6.47;2.65;;;16.10;61.20;;;;;;6325407;28;20051;-65
2022/11/15 00:13:37;;;;;;;7.40;2.72;;;16.10;61.40;;;;;;6324043;28;20031;-65
2022/11/15 00:16:57;;;;;;;5.95;2.65;;;16.10;61.70;;;;;;6323806;28;20064;-64
2022/11/15 00:20:17;;;;;;;5.53;2.88;;;16.00;62.00;;;;;;6323265;28;20381;-63
2022/11/15 00:23:37;;;;;;;5.55;2.10;;;16.00;62.50;;;;;;6323033;28;20040;-64
2022/11/15 00:26:56;;;;;;;10.32;3.22;;;15.90;63.00;;;;;;6301104;28;20469;-64
2022/11/15 00:30:16;;;;;;;5.18;2.65;;;15.90;63.30;;;;;;6314678;28;20045;-64
2022/11/15 00:33:35;;;;;;;3.65;2.20;;;15.80;63.50;;;;;;6310023;28;20032;-64
2022/11/15 00:36:55;;;;;;;7.28;2.83;;;15.80;63.70;;;;;;6324703;28;20445;-64
2022/11/15 00:40:15;;;;;;;6.28;2.92;;;15.80;64.00;;;;;;6316803;28;20081;-64
2022/11/15 00:43:35;;;;;;;5.55;3.17;;;15.70;64.10;;;;;;6324894;28;20028;-64
2022/11/15 00:46:54;;;;;;;5.80;2.92;;;15.70;64.10;;;;;;6324891;28;20048;-63
2022/11/15 00:50:14;;;;;;;9.25;2.88;;;15.70;64.30;;;;;;6315319;28;20040;-64
2022/11/15 00:53:33;;;;;;;12.45;3.47;;;15.60;64.50;;;;;;6300142;28;20443;-64
2022/11/15 00:56:53;;;;;;;5.22;2.75;;;15.60;65.00;;;;;;6310416;28;20035;-64
2022/11/15 01:00:13;;;;;;;6.25;3.42;;;15.60;65.30;;;;;;6325558;28;20028;-63
2022/11/15 01:03:33;;;;;;;5.68;2.47;;;15.50;65.30;;;;;;6323918;28;20047;-63
2022/11/15 01:06:53;;;;;;;4.57;2.95;;;15.50;65.60;;;;;;6322423;28;20065;-65
2022/11/15 01:10:13;;;;;;;5.82;3.00;;;15.40;65.80;;;;;;6323092;28;20048;-64
2022/11/15 01:13:34;;;;;;;7.85;3.30;;;15.40;66.00;;;;;;6322999;28;20461;-64
2022/11/15 01:16:54;;;;;;;8.65;2.95;;;15.40;66.20;;;;;;6322177;28;20048;-64
2022/11/15 01:20:14;;;;;;;4.85;3.08;;;15.40;66.50;;;;;;6322937;28;20153;-63
2022/11/15 01:23:33;;;;;;;5.65;3.63;;;15.40;66.60;;;;;;6324974;28;20032;-69
2022/11/15 01:26:53;;;;;;;7.57;3.28;;;15.40;66.70;;;;;;6299637;28;20036;-63
2022/11/15 01:30:13;;;;;;;7.05;2.50;;;15.30;66.70;;;;;;6319722;28;20035;-63
2022/11/15 01:33:35;;;;;;;6.18;3.40;;;15.30;66.80;;;;;;6324499;28;20431;-64
2022/11/15 01:36:55;;;;;;;8.20;2.83;;;15.30;67.10;;;;;;6324204;28;20036;-63
2022/11/15 01:40:14;;;;;;;4.75;2.92;;;15.30;67.30;;;;;;6323486;28;20115;-65
2022/11/15 01:43:36;;;;;;;5.47;3.03;;;15.20;67.30;;;;;;6324483;28;20043;-63
2022/11/15 01:46:56;;;;;;;7.30;3.30;;;15.20;67.60;;;;;;6324267;28;20101;-64
2022/11/15 01:50:21;;;;;;;4.65;3.03;;;15.10;67.80;;;;;;6324239;28;20063;-64
2022/11/15 01:53:45;;;;;;;5.90;2.88;;;15.10;67.90;;;;;;6323916;28;20043;-63
2022/11/15 01:57:09;;;;;;;8.98;3.45;;;15.10;68.20;;;;;;6299003;28;20132;-65
2022/11/15 02:00:31;;;;;;;5.97;3.22;;;15.10;68.40;;;;;;6303901;28;20035;-64
2022/11/15 02:03:56;;;;;;;5.03;3.35;;;15.10;68.40;;;;;;6321619;28;20460;-63
2022/11/15 02:07:18;;;;;;;8.02;3.25;;;15.10;68.60;;;;;;6321365;28;20110;-64
2022/11/15 02:10:37;;;;;;;5.03;2.58;;;15.10;69.40;;;;;;6320313;28;20036;-64
2022/11/15 02:13:58;;;;;;;8.55;3.08;;;15.10;68.60;;;;;;6296386;28;20048;-64
2022/11/15 02:17:32;;;;;;;6.68;3.42;;;15.10;68.70;;;;;;6296293;28;20040;-65
2022/11/15 02:21:20;;;;;;;5.68;3.35;;;15.10;68.70;;;;;;6308094;28;20032;-64
2022/11/15 02:25:04;;;;;;;6.05;3.38;;;15.10;68.80;;;;;;6309465;28;20457;-64
2022/11/15 02:28:58;;;;;;;6.80;3.20;;;15.10;68.90;;;;;;6309773;28;20032;-64
2022/11/15 02:32:27;;;;;;;6.78;3.40;;;15.00;68.90;;;;;;6307556;28;20036;-65
2022/11/15 02:35:49;;;;;;;4.95;3.30;;;15.00;68.90;;;;;;6298321;28;20045;-65
2022/11/15 02:39:35;;;;;;;5.93;3.20;;;15.00;69.00;;;;;;6298369;28;20029;-65
2022/11/15 02:50:27;;;;;;;8.30;3.13;;;15.00;69.00;;;;;;6323666;28;20468;-63
2022/11/15 02:53:46;;;;;;;5.55;3.53;;;15.00;69.10;;;;;;6322203;28;20036;-63
2022/11/15 02:57:21;;;;;;;11.88;3.40;;;15.00;69.40;;;;;;6322557;28;20028;-64
2022/11/15 03:01:02;;;;;;;5.60;3.00;;;14.90;69.40;;;;;;6320378;28;20032;-64
2022/11/15 03:05:16;;;;;;;12.25;3.85;;;14.90;69.60;;;;;;6321198;28;20052;-64
2022/11/15 03:08:52;;;;;;;9.93;3.28;;;14.90;69.80;;;;;;6218726;28;20049;-63
2022/11/15 03:12:25;;;;;;;7.85;3.67;;;14.90;69.80;;;;;;6220032;28;20463;-64
2022/11/15 03:15:53;;;;;;;8.57;3.88;;;14.90;69.80;;;;;;6209883;28;20029;-63
2022/11/15 03:19:24;;;;;;;7.80;3.60;;;14.90;69.80;;;;;;6226550;28;20046;-64
2022/11/15 03:22:46;;;;;;;8.02;4.07;;;15.00;69.80;;;;;;6226038;28;20038;-65
2022/11/15 03:26:09;;;;;;;8.82;4.03;;;15.00;69.80;;;;;;6212077;28;20037;-64
2022/11/15 03:29:43;;;;;;;6.95;3.58;;;15.00;69.80;;;;;;6226342;28;20038;-64
2022/11/15 03:33:04;;;;;;;6.63;3.92;;;15.00;69.90;;;;;;6226204;28;20034;-64
2022/11/15 03:36:25;;;;;;;9.88;3.85;;;15.00;69.90;;;;;;6210550;28;20045;-64
2022/11/15 03:39:44;;;;;;;11.65;4.18;;;15.00;70.00;;;;;;6289205;28;20037;-64
2022/11/15 03:43:16;;;;;;;7.47;3.30;;;14.90;70.00;;;;;;6302484;28;20477;-65
2022/11/15 03:46:46;;;;;;;8.48;3.47;;;14.90;70.10;;;;;;6301900;28;20127;-64
2022/11/15 03:50:11;;;;;;;6.57;3.28;;;14.90;70.20;;;;;;6302082;28;20040;-65
2022/11/15 03:53:32;;;;;;;6.53;3.30;;;14.90;70.50;;;;;;6301252;28;20060;-64
2022/11/15 03:56:51;;;;;;;7.20;3.28;;;14.90;70.60;;;;;;6324199;28;20468;-64
2022/11/15 04:00:11;;;;;;;6.13;3.15;;;14.90;70.60;;;;;;6324795;28;20392;-64
2022/11/15 04:03:30;;;;;;;5.53;3.45;;;14.90;71.50;;;;;;6325536;28;20043;-64
2022/11/15 04:06:50;;;;;;;11.75;3.50;;;14.90;70.60;;;;;;6324151;28;20077;-64
2022/11/15 04:10:11;;;;;;;5.60;2.95;;;14.90;70.60;;;;;;6325390;28;20044;-64
2022/11/15 04:13:31;;;;;;;6.28;3.30;;;14.90;70.70;;;;;;6326911;28;20368;-64
2022/11/15 04:16:50;;;;;;;;;;;14.90;70.70;;;;;;6326539;28;20432;-64
2022/11/15 04:27:25;;;;;;;7.30;3.47;;;14.80;71.00;;;;;;6325508;28;20043;-64
2022/11/15 04:30:45;;;;;;;5.78;2.92;;;14.80;71.00;;;;;;6325297;28;20044;-64
2022/11/15 04:34:05;;;;;;;5.05;2.90;;;14.80;71.10;;;;;;6325923;28;20040;-64
2022/11/15 04:37:24;;;;;;;5.45;3.22;;;14.80;71.20;;;;;;6323743;28;20071;-64
2022/11/15 04:40:43;;;;;;;5.07;3.30;;;14.80;71.20;;;;;;6326342;28;20028;-65
2022/11/15 04:44:02;;;;;;;9.10;3.97;;;14.80;71.10;;;;;;6324988;28;20119;-64
2022/11/15 04:47:22;;;;;;;5.68;3.03;;;14.80;71.20;;;;;;6324182;28;20460;-63
2022/11/15 04:50:41;;;;;;;8.15;3.95;;;14.80;71.30;;;;;;6318802;28;20040;-64
2022/11/15 04:54:01;;;;;;;6.88;3.60;;;14.80;71.30;;;;;;6322458;28;20505;-64
2022/11/15 04:57:20;;;;;;;5.88;3.33;;;14.80;71.30;;;;;;6323115;28;20496;-65
2022/11/15 05:00:40;;;;;;;7.63;3.33;;;14.80;71.20;;;;;;6322300;28;20044;-64
2022/11/15 05:07:37;;;;;;;10.52;3.20;;;14.80;71.30;;;;;;6298769;28;20047;-63
2022/11/15 05:10:57;;;;;;;11.25;3.35;;;14.70;71.50;;;;;;6318842;28;20385;-64
2022/11/15 05:14:16;;;;;;;10.45;3.38;;;14.70;71.50;;;;;;6325291;28;20474;-65
2022/11/15 05:17:36;;;;;;;5.95;3.08;;;14.70;71.50;;;;;;6324562;28;20048;-65
2022/11/15 05:20:55;;;;;;;4.68;2.60;;;14.70;71.40;;;;;;6325319;28;20104;-65
2022/11/15 05:24:15;;;;;;;8.93;3.17;;;14.80;71.30;;;;;;6324427;28;20122;-65
2022/11/15 05:27:34;;;;;;;10.13;3.40;;;14.80;71.20;;;;;;6325186;28;20353;-65
2022/11/15 05:30:59;;;;;;;6.20;2.95;;;14.80;71.30;;;;;;6324384;28;20043;-64
2022/11/15 05:34:21;;;;;;;7.88;3.60;;;14.80;71.30;;;;;;6324283;28;20036;-64
2022/11/15 05:37:41;;;;;;;5.90;3.30;;;14.80;71.30;;;;;;6320749;28;20453;-64
2022/11/15 05:41:01;;;;;;;5.90;3.20;;;14.80;71.40;;;;;;6321875;28;20028;-65
2022/11/15 05:44:25;;;;;;;6.60;3.45;;;14.80;71.60;;;;;;6321300;28;20028;-64
2022/11/15 05:47:45;;;;;;;8.98;3.65;;;14.80;71.50;;;;;;6323081;28;20039;-65
2022/11/15 05:51:06;;;;;;;4.97;2.70;;;14.70;71.50;;;;;;6298062;28;20395;-64
2022/11/15 05:54:26;;;;;;;4.85;2.55;;;14.70;71.80;;;;;;6322586;28;20035;-64
2022/11/15 05:57:46;;;;;;;6.63;3.15;;;14.70;71.80;;;;;;6321744;28;20036;-64
2022/11/15 06:01:06;;;;;;;10.02;2.30;;;14.70;71.70;;;;;;6320033;28;20103;-64
2022/11/15 06:04:25;;;;;;;9.35;3.13;;;14.70;71.70;;;;;;6323354;28;20044;-64
2022/11/15 06:07:45;;;;;;;7.38;3.55;;;14.70;71.80;;;;;;6323769;28;20040;-63
2022/11/15 06:11:06;;;;;;;8.55;3.53;;;14.80;71.80;;;;;;6315717;28;20052;-65
2022/11/15 06:14:25;;;;;;;6.57;3.15;;;14.80;71.70;;;;;;6310941;28;20454;-64
2022/11/15 06:17:45;;;;;;;5.28;3.08;;;14.80;71.60;;;;;;6313710;28;20372;-64
2022/11/15 06:21:05;;;;;;;5.72;3.20;;;14.80;71.80;;;;;;6319316;28;20040;-64
2022/11/15 06:24:24;;;;;;;5.85;3.42;;;14.70;71.70;;;;;;6317686;28;20036;-64
2022/11/15 06:27:44;;;;;;;6.32;3.45;;;14.70;71.70;;;;;;6320477;28;20115;-64
2022/11/15 06:31:09;;;;;;;4.20;2.88;;;14.70;71.70;;;;;;6320991;28;20032;-65
2022/11/15 06:34:28;;;;;;;6.07;2.90;;;14.70;71.80;;;;;;6312759;28;20036;-63
2022/11/15 06:37:48;;;;;;;6.03;3.40;;;14.60;72.00;;;;;;6322287;28;20135;-64
2022/11/15 06:41:09;;;;;;;4.25;2.72;;;14.60;72.20;;;;;;6321174;28;20032;-64
2022/11/15 06:44:28;;;;;;;8.38;3.53;;;14.60;72.40;;;;;;6322002;28;20410;-63
2022/11/15 06:47:48;;;;;;;15.32;3.97;;;14.60;72.40;;;;;;6320983;28;20441;-63
2022/11/15 06:51:08;;;;;;;8.40;3.53;;;14.60;72.30;;;;;;6324867;28;20040;-64
2022/11/15 06:54:27;;;;;;;7.82;3.45;;;14.70;72.30;;;;;;6325976;28;20039;-64
2022/11/15 06:57:51;;;;;;;5.38;3.60;;;14.70;72.20;;;;;;6325057;28;20052;-64
2022/11/15 07:01:11;;;;;;;4.07;2.55;;;14.80;72.10;;;;;;6327501;28;20044;-64
2022/11/15 07:04:31;;;;;;;6.28;3.05;;;14.70;71.90;;;;;;6328517;28;20067;-64
2022/11/15 07:07:52;;;;;;;12.15;3.75;;;14.80;72.10;;;;;;6328253;28;20044;-64
2022/11/15 07:11:12;;;;;;;4.63;3.15;;;14.70;72.30;;;;;;6327290;28;20039;-64
2022/11/15 07:14:31;;;;;;;4.95;3.15;;;14.70;72.30;;;;;;6328403;28;20071;-64
2022/11/15 07:17:51;;;;;;;6.93;3.25;;;14.80;72.30;;;;;;6327516;28;20084;-63
2022/11/15 07:21:11;;;;;;;9.68;3.13;;;14.80;72.20;;;;;;6327373;28;20032;-64
2022/11/15 07:24:30;;;;;;;9.77;3.00;;;14.80;72.10;;;;;;6327521;28;20428;-65
2022/11/15 07:27:59;;;;;;;7.93;3.05;;;14.80;72.00;;;;;;6328016;28;20032;-65
2022/11/15 07:31:18;;;;;;;10.02;3.47;;;14.80;72.00;;;;;;6327462;28;20040;-65
2022/11/15 07:34:37;;;;;;;5.68;3.17;;;14.80;72.00;;;;;;6327817;28;20051;-64
2022/11/15 07:37:59;;;;;;;6.38;3.65;;;14.90;72.00;;;;;;6326432;28;20376;-64
2022/11/15 07:41:18;;;;;;;8.52;2.78;;;14.90;71.90;;;;;;6327190;28;20040;-65
2022/11/15 07:44:38;;;;;;;7.40;3.28;;;15.00;71.80;;;;;;6326834;28;20032;-64
2022/11/15 07:47:57;;;;;;;7.05;3.92;;;15.00;71.50;;;;;;6326654;28;20474;-64
2022/11/15 07:51:17;;;;;;;6.50;4.05;;;15.10;71.40;;;;;;6326830;28;20043;-64
2022/11/15 07:54:36;;;;;;;6.03;3.35;;;15.10;71.20;;;;;;6326499;28;20119;-65
2022/11/15 07:58:14;;;;;;;6.78;3.13;;;15.20;71.20;;;;;;6326569;28;20036;-64
2022/11/15 08:01:33;;;;;;;6.22;3.08;;;15.20;71.00;;;;;;6325616;28;20032;-64
2022/11/15 08:04:53;;;;;;;4.50;2.58;;;15.30;70.90;;;;;;6326982;28;20036;-64
2022/11/15 08:08:13;;;;;;;6.43;2.83;;;15.40;70.80;;;;;;6325681;28;20040;-64
2022/11/15 08:11:32;;;;;;;4.82;2.70;;;15.40;70.60;;;;;;6326462;28;20179;-63
2022/11/15 08:14:52;;;;;;;11.35;2.58;;;15.50;70.50;;;;;;6326775;28;20432;-65
2022/11/15 08:18:14;;;;;;;5.05;2.85;;;15.60;70.40;;;;;;6325936;28;20052;-65
2022/11/15 08:21:34;;;;;;;7.90;3.30;;;15.70;70.00;;;;;;6326642;28;20039;-64
2022/11/15 08:24:53;;;;;;;8.00;3.08;;;15.80;69.80;;;;;;6325524;28;20036;-65
2022/11/15 08:28:16;;;;;;;8.73;3.22;;;15.80;69.40;;;;;;6324412;28;20044;-63
2022/11/15 08:31:36;;;;;;;5.65;2.70;;;15.70;69.30;;;;;;6324182;28;20040;-63
2022/11/15 08:34:55;;;;;;;7.07;3.00;;;15.80;69.50;;;;;;6323733;28;20036;-64
2022/11/15 08:38:14;;;;;;;6.78;2.65;;;15.80;69.50;;;;;;6322149;28;20039;-65
2022/11/15 08:41:37;;;;;;;8.45;3.13;;;15.80;69.50;;;;;;6323232;28;20032;-64
2022/11/15 08:44:56;;;;;;;7.40;3.38;;;15.90;69.20;;;;;;6322969;28;20031;-64
2022/11/15 08:48:16;;;;;;;10.15;3.75;;;15.90;69.10;;;;;;6321566;28;20036;-65
2022/11/15 08:51:35;;;;;;;7.93;3.75;;;16.00;69.10;;;;;;6324638;28;20028;-65
2022/11/15 08:54:55;;;;;;;9.30;3.35;;;16.00;68.90;;;;;;6325353;28;20464;-65
2022/11/15 08:58:14;;;;;;;8.75;4.30;;;16.00;69.00;;;;;;6325322;28;20059;-64
2022/11/15 09:01:33;;;;;;;10.93;4.18;;;16.10;68.90;;;;;;6325011;28;20361;-65
2022/11/15 09:04:53;;;;;;;12.02;3.90;;;16.20;68.70;;;;;;6325276;28;20028;-65
2022/11/15 09:08:12;;;;;;;15.80;4.72;;;16.30;68.60;;;;;;6324572;28;20032;-64
2022/11/15 09:11:32;;;;;;;6.35;3.90;;;16.40;68.20;;;;;;6325004;28;20036;-64
2022/11/15 09:14:52;;;;;;;10.15;3.63;;;16.50;68.00;;;;;;6324287;28;20373;-64
2022/11/15 09:18:11;;;;;;;26.20;5.22;;;16.50;67.90;;;;;;6323511;28;20051;-65
2022/11/15 09:21:31;;;;;;;11.38;4.60;;;16.60;67.50;;;;;;6325147;28;20032;-64
2022/11/15 09:24:51;;;;;;;15.93;5.68;;;16.60;67.50;;;;;;6324710;28;20359;-64
2022/11/15 09:28:10;;;;;;;10.60;4.38;;;16.60;67.50;;;;;;6324007;28;20364;-64
2022/11/15 09:31:30;;;;;;;8.57;3.30;;;16.60;67.30;;;;;;6324437;28;20463;-64
2022/11/15 09:34:51;;;;;;;7.05;3.25;;;16.60;67.30;;;;;;6324789;28;20040;-64
2022/11/15 09:38:11;;;;;;;12.38;4.47;;;16.70;67.40;;;;;;6323485;28;20048;-64
2022/11/15 09:41:36;;;;;;;6.78;3.40;;;16.70;67.20;;;;;;6323755;28;20523;-64
2022/11/15 09:45:38;;;;;;;9.93;3.65;;;16.80;67.20;;;;;;6323378;28;20040;-65
2022/11/15 09:49:15;;;;;;;7.28;3.85;;;16.90;67.40;;;;;;6210624;28;20030;-65
2022/11/15 09:52:29;;;;;;;5.68;3.42;;;17.10;67.00;;;;;;6207428;28;20061;-64
2022/11/15 09:56:00;;;;;;;5.28;3.30;;;17.20;66.70;;;;;;6205114;28;20032;-64
2022/11/15 09:59:16;;;;;;;5.50;2.80;;;17.20;66.10;;;;;;6217024;28;20049;-64
2022/11/15 10:02:23;;;;;;;4.88;3.08;;;17.30;65.40;;;;;;6189356;28;20149;-64
2022/11/15 10:05:25;;;;;;;5.07;2.10;;;17.30;65.10;;;;;;6221676;28;20039;-65
2022/11/15 10:08:59;;;;;;;7.05;3.42;;;17.30;65.10;;;;;;6221844;28;20030;-63
2022/11/15 10:12:00;;;;;;;13.40;4.60;;;17.40;65.20;;;;;;6188825;28;20061;-64
2022/11/15 10:15:11;;;;;;;12.23;2.40;;;17.40;65.10;;;;;;6221283;28;20097;-65
2022/11/15 10:18:19;;;;;;;4.15;2.70;;;17.40;64.80;;;;;;6220377;28;20113;-64
2022/11/15 10:21:24;;;;;;;6.50;3.20;;;17.50;65.80;;;;;;6295998;28;20413;-65
2022/11/15 10:24:30;;;;;;;6.57;2.85;;;17.50;64.90;;;;;;6298976;28;20020;-64
2022/11/15 10:27:32;;;;;;;4.18;2.80;;;17.60;64.80;;;;;;6320085;28;20084;-65
2022/11/15 10:30:37;;;;;;;4.10;2.67;;;17.70;64.70;;;;;;6309238;28;20483;-64
2022/11/15 10:33:39;;;;;;;6.00;2.78;;;17.80;64.50;;;;;;6287254;28;20410;-65
2022/11/15 10:36:57;;;;;;;7.55;2.55;;;17.90;64.20;;;;;;6320664;28;20123;-64
2022/11/15 10:40:15;;;;;;;7.78;2.75;;;17.90;64.90;;;;;;6319600;28;20765;-64
2022/11/15 10:43:18;;;;;;;6.35;2.70;;;17.90;63.80;;;;;;6320809;28;20102;-65
2022/11/15 10:46:24;;;;;;;7.88;3.20;;;17.80;63.20;;;;;;6322691;28;20078;-64
2022/11/15 10:49:30;;;;;;;6.93;3.50;;;17.80;63.60;;;;;;6320810;28;20032;-64
2022/11/15 10:52:35;;;;;;;5.57;3.35;;;17.70;63.60;;;;;;6304326;28;20048;-65
2022/11/15 10:55:36;;;;;;;7.65;3.30;;;17.70;63.50;;;;;;6316645;28;20080;-64
2022/11/15 10:58:38;;;;;;;6.90;4.20;;;17.70;63.70;;;;;;6316317;28;20040;-65
2022/11/15 11:01:47;;;;;;;7.95;3.42;;;17.70;63.80;;;;;;6318496;28;20043;-66
2022/11/15 11:04:51;;;;;;;7.90;4.00;;;17.70;63.70;;;;;;6320413;28;20148;-67
2022/11/15 11:08:03;;;;;;;9.93;4.43;;;17.80;63.50;;;;;;6321785;28;20342;-65
2022/11/15 11:11:05;;;;;;;13.38;5.18;;;17.80;63.10;;;;;;6313970;28;20031;-65
2022/11/15 11:14:17;;;;;;;6.63;2.90;;;17.80;62.80;;;;;;6319864;28;20032;-65
2022/11/15 11:17:26;;;;;;;5.45;2.67;;;17.80;63.00;;;;;;6319079;28;20062;-64
2022/11/15 11:20:33;;;;;;;;;;;17.80;62.90;;;;;;6302232;28;20051;-65
2022/11/15 11:23:36;;;;;;;9.70;3.15;;;17.80;63.10;;;;;;6319703;28;19908;-64
2022/11/15 11:27:07;;;;;;;7.90;3.22;;;17.80;62.80;;;;;;6319280;28;20032;-66
2022/11/15 11:30:58;;;;;;;7.93;3.08;;;17.70;63.00;;;;;;6320732;28;20416;-66
2022/11/15 11:34:26;;;;;;;8.40;4.00;;;17.70;63.10;;;;;;6206586;28;20064;-65
2022/11/15 11:37:33;;;;;;;5.28;3.05;;;17.70;63.30;;;;;;6216935;28;20426;-65
2022/11/15 11:40:39;;;;;;;6.15;3.00;;;17.70;63.30;;;;;;6203898;28;20128;-64
2022/11/15 11:44:05;;;;;;;9.18;4.10;;;17.80;63.10;;;;;;6188026;28;20034;-63
2022/11/15 11:47:19;;;;;;;7.75;3.38;;;17.80;63.20;;;;;;6220678;28;20046;-64
2022/11/15 11:50:26;;;;;;;13.45;4.10;;;17.80;63.20;;;;;;6206544;28;20030;-64
2022/11/15 11:53:39;;;;;;;11.43;5.60;;;17.90;63.10;;;;;;6224343;28;20068;-65
2022/11/15 11:56:43;;;;;;;9.85;6.03;;;17.90;62.90;;;;;;6208629;28;20057;-64
2022/11/15 11:59:52;;;;;;;10.38;5.65;;;18.00;62.60;;;;;;6224943;28;20113;-64
2022/11/15 12:03:07;;;;;;;11.65;4.60;;;18.00;62.70;;;;;;6222146;28;20026;-66
2022/11/15 12:06:32;;;;;;;11.57;3.95;;;18.00;62.50;;;;;;6229719;28;20479;-64
2022/11/15 12:09:51;;;;;;;9.95;3.30;;;18.00;62.30;;;;;;6301109;28;20126;-65
2022/11/15 12:13:07;;;;;;;9.35;3.67;;;18.00;62.50;;;;;;6301481;28;20106;-64
2022/11/15 12:16:21;;;;;;;14.93;3.85;;;18.00;62.60;;;;;;6299765;28;20055;-64
2022/11/15 12:19:22;;;;;;;4.28;2.63;;;18.00;62.50;;;;;;6305578;28;20361;-64
2022/11/15 12:22:52;;;;;;;9.48;3.13;;;17.90;62.70;;;;;;6316786;28;20024;-64
2022/11/15 12:25:59;;;;;;;8.48;2.75;;;17.90;63.30;;;;;;6303329;28;20377;-65
2022/11/15 12:29:06;;;;;;;6.30;3.03;;;17.90;63.30;;;;;;6324424;28;20035;-65
2022/11/15 12:32:29;;;;;;;6.78;2.78;;;17.90;63.40;;;;;;6324885;28;20062;-64
2022/11/15 12:35:41;;;;;;;8.35;3.20;;;18.00;63.40;;;;;;6325271;28;20020;-66
2022/11/15 12:39:03;;;;;;;11.40;3.42;;;18.00;63.40;;;;;;6323836;28;20020;-65
2022/11/15 12:42:03;;;;;;;13.40;3.72;;;18.10;63.50;;;;;;6324909;28;20047;-66
2022/11/15 12:45:37;;;;;;;8.80;3.25;;;18.10;63.30;;;;;;6324327;28;20028;-64
2022/11/15 12:48:38;;;;;;;9.38;3.22;;;18.10;63.50;;;;;;6324889;28;20052;-65
2022/11/15 12:51:41;;;;;;;10.55;3.20;;;18.20;63.40;;;;;;6324970;28;20038;-65
2022/11/15 12:54:42;;;;;;;13.52;3.53;;;18.20;63.30;;;;;;6305889;28;20097;-64
2022/11/15 12:57:44;;;;;;;11.63;3.65;;;18.30;63.40;;;;;;6323167;28;20040;-65
2022/11/15 13:00:45;;;;;;;7.80;3.80;;;18.30;63.50;;;;;;6324478;28;20073;-64
2022/11/15 13:04:14;;;;;;;12.18;4.10;;;18.30;63.50;;;;;;6324948;28;20118;-65
2022/11/15 13:07:40;;;;;;;16.27;5.13;;;18.30;63.70;;;;;;6323457;28;20043;-64
2022/11/15 13:10:41;;;;;;;9.02;3.60;;;18.30;63.70;;;;;;6323505;28;20114;-65
2022/11/15 13:13:44;;;;;;;15.40;4.60;;;18.40;63.80;;;;;;6306890;28;20028;-65
2022/11/15 13:16:47;;;;;;;7.40;3.13;;;18.40;63.70;;;;;;6323457;28;20108;-65
2022/11/15 13:20:06;;;;;;;7.55;3.30;;;18.40;63.70;;;;;;6324659;28;20024;-64
2022/11/15 13:23:11;;;;;;;5.88;3.28;;;18.50;63.50;;;;;;6324255;28;20415;-64
2022/11/15 13:26:17;;;;;;;8.45;3.72;;;18.70;63.10;;;;;;6324382;28;20034;-64
2022/11/15 13:29:35;;;;;;;11.63;5.05;;;18.80;62.70;;;;;;6297075;28;20044;-64
2022/11/15 13:32:38;;;;;;;7.88;3.50;;;18.90;62.60;;;;;;6296609;28;20044;-65
2022/11/15 13:35:41;;;;;;;19.75;3.63;;;18.90;62.60;;;;;;6279763;28;20058;-65
2022/11/15 13:38:43;;;;;;;8.95;3.28;;;18.90;62.60;;;;;;6295446;28;20473;-64
2022/11/15 13:41:49;;;;;;;7.10;3.63;;;18.90;62.80;;;;;;6296517;28;20556;-64
2022/11/15 13:45:03;;;;;;;11.70;3.35;;;18.90;62.80;;;;;;6263440;28;20048;-64
2022/11/15 13:48:06;;;;;;;11.10;3.53;;;18.80;62.80;;;;;;6279918;28;20035;-64
2022/11/15 13:51:38;;;;;;;10.25;3.60;;;18.80;63.10;;;;;;6263131;28;20089;-64
2022/11/15 13:54:43;;;;;;;9.07;3.30;;;18.70;63.50;;;;;;6132662;29;20039;-65
2022/11/15 13:58:05;;;;;;;12.85;4.18;;;18.70;63.60;;;;;;6132994;28;20031;-64
2022/11/15 14:01:14;;;;;;;10.20;4.00;;;18.70;63.80;;;;;;6153830;28;20049;-64
2022/11/15 14:04:20;;;;;;;15.63;4.50;;;18.70;64.60;;;;;;6198044;28;20130;-65
2022/11/15 14:07:23;;;;;;;11.63;4.72;;;18.70;63.80;;;;;;6181634;28;20034;-64
2022/11/15 14:10:33;;;;;;;11.32;4.40;;;18.70;63.80;;;;;;6181694;28;20490;-65
2022/11/15 14:13:35;;;;;;;13.27;4.95;;;18.70;63.80;;;;;;6181915;28;20035;-66
2022/11/15 14:16:38;;;;;;;10.45;5.30;;;18.70;63.80;;;;;;6181074;28;20081;-65
2022/11/15 14:19:40;;;;;;;16.77;4.55;;;18.70;63.80;;;;;;6197682;28;20042;-65
2022/11/15 14:22:52;;;;;;;11.40;4.35;;;18.70;63.90;;;;;;6197507;28;20129;-64
2022/11/15 14:25:57;;;;;;;9.15;4.13;;;18.70;64.00;;;;;;6190338;28;20161;-65
2022/11/15 14:29:21;;;;;;;12.23;4.05;;;18.70;64.00;;;;;;6197377;28;20041;-63
2022/11/15 14:32:42;;;;;;;9.65;4.22;;;18.70;64.10;;;;;;6299198;28;20113;-65
2022/11/15 14:35:43;;;;;;;9.40;4.25;;;18.60;63.90;;;;;;6281006;28;20028;-64
2022/11/15 14:38:44;;;;;;;9.63;3.80;;;18.60;63.80;;;;;;6321616;28;20047;-65
2022/11/15 14:41:45;;;;;;;8.80;3.88;;;18.60;63.80;;;;;;6321775;28;20322;-64
2022/11/15 14:44:46;;;;;;;10.10;3.88;;;18.50;63.70;;;;;;6321408;28;20036;-65
2022/11/15 14:47:48;;;;;;;10.18;3.30;;;18.50;63.80;;;;;;6321486;28;20036;-64
2022/11/15 14:50:49;;;;;;;9.55;3.30;;;18.40;63.80;;;;;;6304834;28;20032;-64
2022/11/15 14:53:50;;;;;;;19.10;6.57;;;18.40;63.90;;;;;;6322614;28;20056;-65
2022/11/15 14:56:51;;;;;;;11.20;4.03;;;18.40;63.90;;;;;;6322134;28;20318;-64
2022/11/15 14:59:52;;;;;;;13.35;4.20;;;18.30;64.10;;;;;;6321619;28;20074;-64
2022/11/15 15:02:54;;;;;;;12.32;4.43;;;18.20;64.30;;;;;;6321888;28;20036;-64
2022/11/15 15:05:56;;;;;;;8.88;4.35;;;18.30;64.40;;;;;;6322170;28;20020;-64
2022/11/15 15:08:57;;;;;;;10.80;3.05;;;18.20;64.30;;;;;;6303604;28;20534;-63
2022/11/15 15:11:58;;;;;;;7.40;3.45;;;18.20;64.50;;;;;;6325145;28;20034;-64
2022/11/15 15:14:59;;;;;;;11.27;4.45;;;18.20;64.70;;;;;;6323984;28;20031;-64
2022/11/15 15:18:04;;;;;;;15.57;3.70;;;18.10;64.90;;;;;;6324129;28;20048;-64
2022/11/15 15:21:30;;;;;;;9.10;3.30;;;18.10;65.00;;;;;;6324555;28;20357;-65
2022/11/15 15:24:32;;;;;;;11.20;4.22;;;18.10;65.00;;;;;;6323715;28;20024;-64
2022/11/15 15:27:32;;;;;;;10.45;4.38;;;18.10;65.00;;;;;;6326076;28;20111;-64
2022/11/15 15:30:33;;;;;;;15.48;4.13;;;18.10;65.00;;;;;;6327174;28;20527;-65
2022/11/15 15:33:34;;;;;;;12.68;4.60;;;18.10;65.10;;;;;;6326272;28;20028;-65
2022/11/15 15:36:35;;;;;;;12.35;3.47;;;18.00;65.30;;;;;;6326985;28;20360;-64
2022/11/15 15:39:36;;;;;;;12.07;4.28;;;17.90;65.20;;;;;;6326292;28;20112;-64
2022/11/15 15:42:37;;;;;;;12.20;4.13;;;18.00;65.30;;;;;;6326961;28;20183;-64
2022/11/15 15:45:41;;;;;;;10.88;4.22;;;18.00;65.30;;;;;;6326445;28;20369;-65
2022/11/15 15:48:42;;;;;;;10.05;4.00;;;17.90;65.60;;;;;;6325879;28;20036;-64
2022/11/15 15:51:43;;;;;;;12.73;4.22;;;17.90;65.60;;;;;;6325679;28;20086;-64
2022/11/15 15:54:44;;;;;;;9.13;3.60;;;17.90;65.60;;;;;;6326320;28;20392;-64
2022/11/15 15:57:45;;;;;;;5.88;2.85;;;17.90;65.70;;;;;;6325636;28;20036;-64
2022/11/15 16:00:46;;;;;;;13.55;4.00;;;17.80;65.70;;;;;;6308150;28;20083;-64
2022/11/15 16:03:47;;;;;;;8.55;3.60;;;17.90;65.90;;;;;;6325454;28;20053;-64
2022/11/15 16:06:50;;;;;;;8.90;4.13;;;17.80;65.80;;;;;;6323428;28;20039;-64
2022/11/15 16:10:00;;;;;;;15.57;5.88;;;17.80;65.70;;;;;;6324242;28;20028;-63
2022/11/15 16:13:01;;;;;;;9.43;4.20;;;17.90;65.60;;;;;;6322949;28;20036;-64
2022/11/15 16:16:02;;;;;;;13.15;4.35;;;17.90;65.50;;;;;;6323153;28;20135;-64
2022/11/15 16:19:04;;;;;;;10.13;3.97;;;17.80;65.40;;;;;;6307017;28;20365;-64
2022/11/15 16:22:05;;;;;;;7.05;3.55;;;17.80;65.40;;;;;;6324973;28;20024;-64
2022/11/15 16:25:06;;;;;;;5.85;3.08;;;17.80;65.40;;;;;;6325674;28;20043;-64
2022/11/15 16:28:21;;;;;;;11.27;4.80;;;17.80;65.40;;;;;;6324201;28;20024;-63
2022/11/15 16:31:22;;;;;;;12.02;3.97;;;17.80;65.40;;;;;;6324331;28;20178;-64
2022/11/15 16:34:24;;;;;;;10.30;4.22;;;17.70;65.50;;;;;;6324545;28;20093;-64
2022/11/15 16:37:25;;;;;;;7.28;3.75;;;17.70;65.70;;;;;;6322942;28;20062;-65
2022/11/15 16:40:30;;;;;;;9.95;4.70;;;17.70;65.80;;;;;;6331716;28;20106;-64
2022/11/15 16:43:31;;;;;;;7.60;3.75;;;17.70;66.00;;;;;;6327434;28;20016;-65
2022/11/15 16:46:32;;;;;;;8.50;4.38;;;17.70;66.10;;;;;;6331220;28;20067;-64
2022/11/15 16:49:34;;;;;;;7.28;3.70;;;17.70;66.10;;;;;;6333614;28;20043;-64
2022/11/15 16:52:34;;;;;;;7.00;3.55;;;17.70;66.70;;;;;;6332222;28;20051;-65
2022/11/15 16:55:36;;;;;;;11.35;4.40;;;17.70;65.70;;;;;;6326288;28;20441;-64
2022/11/15 16:58:37;;;;;;;8.85;3.90;;;17.80;65.20;;;;;;6322385;28;20361;-63
2022/11/15 17:02:00;;;;;;;7.85;3.65;;;17.80;65.10;;;;;;6320916;28;20024;-64
2022/11/15 17:05:00;;;;;;;8.68;3.80;;;17.80;64.90;;;;;;6319821;28;20024;-65
2022/11/15 17:08:01;;;;;;;11.02;3.63;;;17.80;64.70;;;;;;6320039;28;20035;-64
2022/11/15 17:11:09;;;;;;;12.00;4.03;;;17.80;64.60;;;;;;6319990;28;20039;-64
2022/11/15 17:14:11;;;;;;;6.60;3.75;;;17.90;64.50;;;;;;6320107;28;20113;-65